Time;durP1;ratioP1;P1;durP2;ratioP2;P2;SDS_P1;SDS_P2;PMS_P1;PMS_P2;Temp;Humidity;BMP_temperature;BMP_pressure;BME280_temperature;BME280_humidity;BME280_pressure;Samples;Min_cycle;Max_cycle;Signal;HPM_P1;HPM_P2
2021/04/16 00:00:33;;;;;;;4.93;3.60;;;;;;;1.34;78.75;98967.44;5094284;28;20221;-70
2021/04/16 00:02:59;;;;;;;4.97;2.90;;;;;;;1.40;78.21;98969.94;5094514;28;20206;-71
2021/04/16 00:05:25;;;;;;;3.00;2.70;;;;;;;1.50;76.85;98963.66;5092949;28;20212;-70
2021/04/16 00:07:52;;;;;;;3.43;3.00;;;;;;;1.44;77.16;98963.78;5094674;28;20212;-69
2021/04/16 00:10:23;;;;;;;3.93;2.80;;;;;;;1.40;77.91;98954.31;5094505;28;20258;-69
2021/04/16 00:12:50;;;;;;;3.87;3.10;;;;;;;1.28;78.65;98961.53;5094452;28;20555;-70
2021/04/16 00:15:20;;;;;;;2.90;2.60;;;;;;;1.19;79.54;98957.34;5094694;28;20223;-69
2021/04/16 00:17:46;;;;;;;3.43;2.90;;;;;;;1.17;79.81;98955.66;5093890;28;20233;-69
2021/04/16 00:20:15;;;;;;;4.43;3.00;;;;;;;1.11;80.54;98946.19;5094299;28;20207;-67
2021/04/16 00:22:41;;;;;;;4.27;2.73;;;;;;;1.10;80.01;98951.47;5094291;28;20211;-66
2021/04/16 00:25:12;;;;;;;3.47;2.53;;;;;;;1.10;79.83;98941.03;5094214;28;20686;-67
2021/04/16 00:27:38;;;;;;;3.77;3.20;;;;;;;1.09;79.62;98945.38;5094209;28;20260;-66
2021/04/16 00:30:06;;;;;;;3.30;2.70;;;;;;;1.00;81.38;98948.13;5094110;28;20697;-67
2021/04/16 00:32:33;;;;;;;4.67;3.17;;;;;;;0.93;82.48;98938.72;5092422;28;20583;-68
2021/04/16 00:34:59;;;;;;;3.87;3.10;;;;;;;0.87;82.71;98938.84;5093286;28;20208;-67
2021/04/16 00:37:25;;;;;;;4.07;3.20;;;;;;;0.86;83.25;98937.13;5093667;28;20838;-67
2021/04/16 00:39:51;;;;;;;5.83;2.80;;;;;;;0.84;83.44;98938.91;5093891;28;20213;-68
2021/04/16 00:42:17;;;;;;;2.93;2.63;;;;;;;0.81;83.76;98936.34;5094239;28;20221;-69
2021/04/16 00:44:43;;;;;;;4.80;2.80;;;;;;;1.00;81.37;98940.31;5093904;28;20205;-68
2021/04/16 00:47:14;;;;;;;3.30;2.70;;;;;;;1.06;80.26;98927.19;5093789;28;20239;-70
2021/04/16 00:49:43;;;;;;;3.17;2.83;;;;;;;1.01;80.72;98926.47;5093623;28;20210;-70
2021/04/16 00:52:11;;;;;;;3.30;2.73;;;;;;;1.06;80.35;98929.81;5094105;28;20212;-71
2021/04/16 00:54:40;;;;;;;3.00;2.70;;;;;;;1.01;81.27;98921.25;5093745;28;20211;-70
2021/04/16 00:57:09;;;;;;;3.20;2.73;;;;;;;0.99;81.24;98917.78;5091824;28;20236;-70
2021/04/16 00:59:41;;;;;;;4.53;3.07;;;;;;;0.97;80.62;98918.72;5093326;28;20558;-70
2021/04/16 01:02:08;;;;;;;4.13;3.00;;;;;;;0.93;81.15;98919.69;5093532;28;20210;-71
2021/04/16 01:04:35;;;;;;;4.07;2.93;;;;;;;0.86;81.46;98921.53;5093175;28;20217;-70
2021/04/16 01:07:04;;;;;;;4.03;3.03;;;;;;;0.91;81.41;98919.69;5093458;28;20217;-70
2021/04/16 01:09:30;;;;;;;5.70;3.33;;;;;;;0.86;81.26;98915.47;5093211;28;20671;-71
2021/04/16 01:11:57;;;;;;;5.90;3.00;;;;;;;0.83;81.96;98916.38;5093231;28;20213;-70
2021/04/16 01:14:24;;;;;;;4.07;3.13;;;;;;;0.82;81.84;98919.88;5093501;28;20243;-67
2021/04/16 01:16:50;;;;;;;3.07;2.67;;;;;;;0.91;81.15;98914.50;5093035;28;20237;-67
2021/04/16 01:19:23;;;;;;;3.63;2.90;;;;;;;0.87;81.59;98907.63;5093391;28;20217;-67
2021/04/16 01:21:55;;;;;;;4.40;3.13;;;;;;;0.89;81.03;98905.88;5093464;28;20236;-67
2021/04/16 01:24:26;;;;;;;5.00;3.20;;;;;;;0.88;81.33;98909.38;5091318;28;20210;-67
2021/04/16 01:26:53;;;;;;;6.07;2.80;;;;;;;0.86;81.75;98900.69;5093164;28;20289;-68
2021/04/16 01:29:19;;;;;;;3.57;3.10;;;;;;;0.91;81.25;98906.69;5093208;28;20206;-68
2021/04/16 01:31:48;;;;;;;3.10;2.70;;;;;;;0.92;80.86;98905.78;5092881;28;20217;-68
2021/04/16 01:34:16;;;;;;;3.33;2.73;;;;;;;0.71;82.59;98911.41;5093289;28;20214;-68
2021/04/16 01:36:43;;;;;;;3.97;3.03;;;;;;;0.55;84.22;98914.31;5093125;28;20226;-68
2021/04/16 01:39:10;;;;;;;3.73;2.90;;;;;;;0.39;86.12;98913.69;5093298;28;20213;-69
2021/04/16 01:41:37;;;;;;;6.53;3.13;;;;;;;0.24;87.47;98908.75;5093169;28;20216;-67
2021/04/16 01:44:07;;;;;;;3.20;2.90;;;;;;;0.19;87.42;98905.38;5093037;28;20217;-70
2021/04/16 01:46:50;;;;;;;4.33;3.20;;;;;;;0.14;88.65;98917.56;5094155;28;20624;-70
2021/04/16 01:49:18;;;;;;;5.30;4.00;;;;;;;0.22;89.61;98905.34;5097328;28;20210;-70
2021/04/16 01:51:44;;;;;;;4.57;3.40;;;;;;;0.17;89.77;98901.94;5095491;28;20285;-70
2021/04/16 01:54:13;;;;;;;5.93;3.90;;;;;;;0.14;90.36;98896.78;5097110;28;20220;-70
2021/04/16 01:56:42;;;;;;;3.70;3.27;;;;;;;0.09;90.46;98903.81;5097047;28;20255;-69
2021/04/16 01:59:09;;;;;;;4.53;2.97;;;;;;;0.10;90.79;98900.31;5097153;28;20206;-69
2021/04/16 02:01:36;;;;;;;3.70;3.20;;;;;;;0.06;91.64;98898.66;5097083;28;20208;-68
2021/04/16 02:04:02;;;;;;;3.70;3.20;;;;;;;0.02;91.64;98891.78;5096661;28;20680;-69
2021/04/16 02:06:32;;;;;;;3.73;3.03;;;;;;;0.00;92.37;98896.16;5096913;28;20213;-69
2021/04/16 02:08:58;;;;;;;4.13;3.43;;;;;;;-0.06;91.69;98893.63;5096861;28;20220;-69
2021/04/16 02:11:24;;;;;;;2.93;2.63;;;;;;;-0.11;92.09;98898.03;5096390;28;20247;-68
2021/04/16 02:13:51;;;;;;;3.93;3.30;;;;;;;-0.11;92.37;98894.59;5096660;28;20359;-66
2021/04/16 02:16:17;;;;;;;3.70;2.73;;;;;;;-0.03;91.06;98891.00;5094864;28;20206;-68
2021/04/16 02:18:43;;;;;;;4.03;3.00;;;;;;;-0.04;90.92;98891.88;5096780;28;20211;-67
2021/04/16 02:21:09;;;;;;;3.80;2.73;;;;;;;-0.04;91.56;98891.88;5096196;28;20207;-67
2021/04/16 02:23:35;;;;;;;3.40;3.10;;;;;;;-0.13;93.98;98892.03;5096643;28;20225;-66
2021/04/16 02:26:01;;;;;;;4.40;3.03;;;;;;;-0.07;93.07;98884.13;5096525;28;20303;-66
2021/04/16 02:28:27;;;;;;;5.37;3.20;;;;;;;-0.02;92.70;98884.94;5096528;28;20206;-67
2021/04/16 02:30:54;;;;;;;4.37;3.13;;;;;;;-0.06;92.96;98885.84;5096476;28;20555;-68
2021/04/16 02:33:20;;;;;;;4.17;3.53;;;;;;;-0.11;93.77;98890.25;5096496;28;20213;-67
2021/04/16 02:35:46;;;;;;;4.00;3.03;;;;;;;-0.16;94.87;98884.25;5096327;28;20242;-67
2021/04/16 02:38:12;;;;;;;3.90;3.27;;;;;;;-0.16;94.51;98886.84;5095849;28;20236;-67
2021/04/16 02:40:38;;;;;;;3.40;3.07;;;;;;;-0.22;95.39;98892.13;5096003;28;20215;-66
2021/04/16 02:43:04;;;;;;;4.07;3.63;;;;;;;-0.13;94.92;98880.75;5094268;28;20205;-68
2021/04/16 02:45:30;;;;;;;3.87;3.47;;;;;;;-0.25;95.61;98880.94;5095733;28;20670;-69
2021/04/16 02:47:57;;;;;;;5.00;3.53;;;;;;;-0.24;94.64;98876.63;5096112;28;20209;-69
2021/04/16 02:50:27;;;;;;;4.03;3.60;;;;;;;-0.21;94.82;98882.63;5096239;28;20204;-66
2021/04/16 02:52:53;;;;;;;4.60;3.77;;;;;;;-0.19;95.67;98880.00;5095769;28;20263;-69
2021/04/16 02:55:19;;;;;;;4.67;3.87;;;;;;;-0.22;96.09;98880.03;5096109;28;20222;-67
2021/04/16 02:57:45;;;;;;;4.70;3.80;;;;;;;-0.20;95.94;98879.13;5095133;28;20297;-66
2021/04/16 03:00:15;;;;;;;4.57;3.70;;;;;;;-0.22;95.49;98874.84;5095371;28;20738;-65
2021/04/16 03:02:42;;;;;;;4.27;3.50;;;;;;;-0.31;97.55;98877.59;5095487;28;20221;-66
2021/04/16 03:05:10;;;;;;;4.07;3.67;;;;;;;-0.28;96.39;98877.53;5095769;28;20208;-66
2021/04/16 03:07:36;;;;;;;4.60;4.07;;;;;;;-0.33;97.37;98876.78;5095531;28;20724;-66
2021/04/16 03:10:03;;;;;;;5.20;4.20;;;;;;;-0.35;97.04;98874.19;5094078;28;20213;-66
2021/04/16 03:12:29;;;;;;;5.17;4.67;;;;;;;-0.30;96.54;98872.38;5095435;28;20214;-67
2021/04/16 03:14:55;;;;;;;5.87;5.10;;;;;;;-0.38;99.74;98873.38;5095528;28;20217;-68
2021/04/16 03:17:21;;;;;;;5.87;4.60;;;;;;;-0.34;99.09;98870.69;5095313;28;20238;-69
2021/04/16 03:19:47;;;;;;;5.07;3.97;;;;;;;-0.33;98.18;98867.22;5095616;28;20212;-66
2021/04/16 03:22:14;;;;;;;4.77;4.00;;;;;;;-0.42;98.73;98875.16;5095458;28;20322;-67
2021/04/16 03:24:40;;;;;;;4.63;4.07;;;;;;;-0.44;98.74;98876.06;5095378;28;20204;-65
2021/04/16 03:27:07;;;;;;;5.70;4.50;;;;;;;-0.42;100.00;98877.75;5095123;28;20210;-65
2021/04/16 03:29:33;;;;;;;6.07;4.77;;;;;;;-0.46;99.38;98880.38;5095323;28;20206;-66
2021/04/16 03:31:59;;;;;;;5.53;4.70;;;;;;;-0.46;99.69;98875.19;5096869;28;20256;-67
2021/04/16 03:34:25;;;;;;;7.37;4.90;;;;;;;-0.50;99.67;98870.94;5096573;28;20215;-68
2021/04/16 03:36:51;;;;;;;7.37;5.00;;;;;;;-0.50;99.11;98874.38;5093599;28;20475;-68
2021/04/16 03:39:18;;;;;;;7.33;5.27;;;;;;;-0.60;100.00;98861.56;5095556;28;20283;-68
2021/04/16 03:41:44;;;;;;;6.43;4.90;;;;;;;-0.53;100.00;98874.44;5094885;28;20215;-67
2021/04/16 03:44:10;;;;;;;6.57;4.73;;;;;;;-0.54;100.00;98871.84;5094923;28;20211;-67
2021/04/16 03:46:36;;;;;;;6.80;4.70;;;;;;;-0.63;100.00;98869.41;5094741;28;20208;-67
2021/04/16 03:49:02;;;;;;;6.63;4.90;;;;;;;-0.61;100.00;98867.63;5094780;28;20303;-67
2021/04/16 03:51:28;;;;;;;5.57;5.00;;;;;;;-0.67;100.00;98873.78;5095045;28;20208;-67
2021/04/16 03:53:55;;;;;;;5.63;4.73;;;;;;;-0.67;100.00;98870.31;5094903;28;20218;-66
2021/04/16 03:56:23;;;;;;;6.50;5.40;;;;;;;-0.75;100.00;98874.75;5094662;28;20211;-67
2021/04/16 03:58:49;;;;;;;5.83;4.93;;;;;;;-0.70;100.00;98868.63;5094721;28;20264;-67
2021/04/16 04:01:17;;;;;;;6.77;4.90;;;;;;;-0.67;100.00;98867.72;5093315;28;20216;-67
2021/04/16 04:03:43;;;;;;;7.47;5.03;;;;;;;-0.69;100.00;98872.09;5094172;28;20576;-66
2021/04/16 04:06:09;;;;;;;8.63;5.30;;;;;;;-0.71;100.00;98873.81;5094596;28;20216;-67
2021/04/16 04:08:36;;;;;;;6.73;5.10;;;;;;;-0.68;100.00;98878.97;5094532;28;20217;-67
2021/04/16 04:11:03;;;;;;;6.47;4.67;;;;;;;-0.71;100.00;98866.03;5094582;28;20234;-67
2021/04/16 04:13:30;;;;;;;7.20;5.33;;;;;;;-0.72;100.00;98874.69;5094403;28;20761;-67
2021/04/16 04:15:56;;;;;;;6.60;4.90;;;;;;;-0.66;100.00;98879.81;5094506;28;20216;-67
2021/04/16 04:18:22;;;;;;;6.43;5.27;;;;;;;-0.61;100.00;98878.84;5094419;28;20639;-67
2021/04/16 04:20:48;;;;;;;7.70;4.97;;;;;;;-0.64;100.00;98870.25;5094237;28;20213;-68
2021/04/16 04:23:14;;;;;;;6.17;5.07;;;;;;;-0.61;100.00;98875.41;5094234;28;20684;-68
2021/04/16 04:25:40;;;;;;;7.00;5.07;;;;;;;-0.56;100.00;98873.63;5094166;28;20609;-67
2021/04/16 04:28:06;;;;;;;7.13;4.80;;;;;;;-0.51;100.00;98872.66;5092180;28;20218;-68
2021/04/16 04:30:36;;;;;;;6.70;4.73;;;;;;;-0.48;100.00;98872.66;5094236;28;20584;-66
2021/04/16 04:33:02;;;;;;;6.57;5.50;;;;;;;-0.48;100.00;98875.25;5093730;28;20207;-67
2021/04/16 04:35:29;;;;;;;6.60;4.83;;;;;;;-0.45;100.00;98882.13;5094280;28;20673;-67
2021/04/16 04:37:55;;;;;;;7.30;5.80;;;;;;;-0.39;100.00;98879.44;5094371;28;20237;-67
2021/04/16 04:40:22;;;;;;;7.20;5.50;;;;;;;-0.34;100.00;98882.81;5094443;28;20216;-67
2021/04/16 04:42:49;;;;;;;8.53;6.33;;;;;;;-0.39;100.00;98882.06;5094151;28;20666;-67
2021/04/16 04:45:16;;;;;;;8.00;5.87;;;;;;;-0.38;100.00;98878.56;5093659;28;20200;-67
2021/04/16 04:47:43;;;;;;;8.57;5.80;;;;;;;-0.28;100.00;98881.00;5093660;28;20220;-67
2021/04/16 04:50:10;;;;;;;8.90;5.80;;;;;;;-0.21;99.66;98882.63;5093840;28;20231;-66
2021/04/16 04:52:39;;;;;;;7.77;5.47;;;;;;;-0.18;100.00;98882.59;5093625;28;20212;-66
2021/04/16 04:55:08;;;;;;;7.70;4.70;;;;;;;-0.10;99.25;98886.75;5092078;28;20223;-66
2021/04/16 04:57:34;;;;;;;7.37;5.47;;;;;;;0.01;99.32;98884.03;5093629;28;20236;-67
2021/04/16 05:00:00;;;;;;;7.50;5.33;;;;;;;0.08;98.33;98886.47;5093384;28;20677;-66
2021/04/16 05:02:26;;;;;;;8.53;5.30;;;;;;;0.11;98.46;98881.25;5093562;28;20291;-67
2021/04/16 05:04:53;;;;;;;9.93;5.50;;;;;;;0.13;98.15;98884.66;5093642;28;20206;-66
2021/04/16 05:07:19;;;;;;;7.90;5.73;;;;;;;0.27;96.62;98887.94;5093223;28;20207;-68
2021/04/16 05:09:45;;;;;;;6.50;5.23;;;;;;;0.39;95.99;98882.47;5093447;28;20545;-68
2021/04/16 05:12:12;;;;;;;6.20;4.97;;;;;;;0.51;96.23;98890.06;5093412;28;20259;-70
2021/04/16 05:14:38;;;;;;;6.93;4.83;;;;;;;0.62;94.86;98890.75;5092939;28;20239;-69
2021/04/16 05:17:05;;;;;;;7.90;4.77;;;;;;;0.85;93.21;98892.91;5093506;28;20232;-69
2021/04/16 05:19:31;;;;;;;7.23;4.77;;;;;;;1.02;91.85;98894.34;5093308;28;20211;-69
2021/04/16 05:22:01;;;;;;;5.93;4.60;;;;;;;1.14;92.01;98894.09;5091435;28;20254;-68
2021/04/16 05:24:31;;;;;;;6.17;4.90;;;;;;;1.35;89.46;98891.03;5093269;28;20218;-68
2021/04/16 05:26:57;;;;;;;7.20;4.90;;;;;;;1.42;89.19;98903.03;5092944;28;20244;-68
2021/04/16 05:29:23;;;;;;;7.60;5.20;;;;;;;1.60;88.22;98902.66;5092923;28;20285;-68
2021/04/16 05:31:49;;;;;;;6.27;4.60;;;;;;;1.67;86.26;98896.41;5093213;28;20216;-67
2021/04/16 05:34:15;;;;;;;5.30;4.33;;;;;;;1.77;87.29;98900.53;5092422;28;20683;-67
2021/04/16 05:36:41;;;;;;;5.43;4.60;;;;;;;1.88;87.85;98903.75;5092359;28;20348;-68
2021/04/16 05:39:07;;;;;;;7.17;4.47;;;;;;;1.95;87.67;98909.69;5092504;28;20602;-68
2021/04/16 05:41:33;;;;;;;5.27;3.73;;;;;;;1.99;88.82;98906.13;5092287;28;20677;-68
2021/04/16 05:43:59;;;;;;;5.83;4.73;;;;;;;2.06;88.32;98903.34;5092514;28;20302;-68
2021/04/16 05:46:25;;;;;;;5.20;4.50;;;;;;;2.26;88.98;98901.09;5091905;28;20209;-65
2021/04/16 05:48:51;;;;;;;4.80;4.33;;;;;;;2.44;88.84;98898.06;5090909;28;20215;-66
2021/04/16 05:51:18;;;;;;;6.83;4.30;;;;;;;2.54;88.43;98896.94;5092061;28;20271;-67
2021/04/16 05:53:43;;;;;;;6.70;4.87;;;;;;;2.64;88.70;98892.34;5092395;28;20208;-67
2021/04/16 05:56:11;;;;;;;5.00;4.50;;;;;;;2.56;90.04;98905.56;5092428;28;20463;-67
2021/04/16 05:58:37;;;;;;;5.93;5.20;;;;;;;2.46;91.24;98898.84;5092186;28;20233;-67
2021/04/16 06:01:03;;;;;;;5.37;4.73;;;;;;;2.41;92.36;98902.50;5092345;28;20263;-66
2021/04/16 06:03:29;;;;;;;5.27;4.70;;;;;;;2.40;93.82;98906.00;5092376;28;20304;-67
2021/04/16 06:05:57;;;;;;;5.10;4.60;;;;;;;2.40;93.79;98908.59;5092303;28;20295;-66
2021/04/16 06:08:23;;;;;;;6.63;5.23;;;;;;;2.53;95.06;98918.72;5092377;28;20214;-66
2021/04/16 06:10:49;;;;;;;7.30;5.43;;;;;;;2.57;94.42;98912.50;5091413;28;20269;-67
2021/04/16 06:13:16;;;;;;;5.23;4.70;;;;;;;2.57;94.74;98920.31;5091200;28;20267;-67
2021/04/16 06:15:42;;;;;;;6.17;5.20;;;;;;;2.65;92.69;98918.41;5091652;28;20240;-67
2021/04/16 06:18:08;;;;;;;6.13;5.30;;;;;;;2.66;91.68;98921.84;5092085;28;20323;-67
2021/04/16 06:20:34;;;;;;;9.77;5.57;;;;;;;2.71;91.43;98913.03;5092350;28;20216;-68
2021/04/16 06:23:00;;;;;;;5.43;4.77;;;;;;;2.73;90.72;98911.22;5092273;28;20224;-67
2021/04/16 06:25:30;;;;;;;6.10;5.50;;;;;;;2.83;90.86;98914.44;5092035;28;20204;-67
2021/04/16 06:27:57;;;;;;;5.87;4.77;;;;;;;3.01;91.18;98908.75;5092241;28;20217;-66
2021/04/16 06:30:25;;;;;;;5.53;5.00;;;;;;;3.17;91.16;98905.66;5092108;28;20217;-66
2021/04/16 06:33:02;;;;;;;5.17;4.40;;;;;;;3.30;91.57;98912.25;5091767;28;20282;-67
2021/04/16 06:35:29;;;;;;;4.67;4.23;;;;;;;3.41;91.46;98910.19;5095729;28;20214;-66
2021/04/16 06:37:55;;;;;;;5.13;4.63;;;;;;;3.54;89.73;98906.31;5095353;28;20249;-67
2021/04/16 06:40:22;;;;;;;5.20;4.63;;;;;;;3.67;90.15;98896.38;5094944;28;20214;-67
2021/04/16 06:42:49;;;;;;;5.73;4.93;;;;;;;3.91;90.24;98896.47;5094238;28;20691;-66
2021/04/16 06:45:18;;;;;;;5.63;5.13;;;;;;;4.08;89.35;98895.94;5095380;28;20238;-67
2021/04/16 06:47:52;;;;;;;5.33;4.80;;;;;;;4.34;89.17;98901.22;5095393;28;20252;-66
2021/04/16 06:50:20;;;;;;;5.87;4.87;;;;;;;4.43;87.03;98900.91;5095472;28;20214;-67
2021/04/16 06:52:50;;;;;;;5.53;4.93;;;;;;;4.50;87.10;98897.19;5095324;28;20213;-67
2021/04/16 06:55:26;;;;;;;6.23;4.87;;;;;;;4.56;85.65;98899.59;5095304;28;20220;-67
2021/04/16 06:57:59;;;;;;;5.07;4.57;;;;;;;4.59;86.06;98902.97;5095402;28;20241;-67
2021/04/16 07:00:37;;;;;;;5.10;4.50;;;;;;;4.59;83.79;98897.75;5095035;28;20207;-67
2021/04/16 07:03:12;;;;;;;6.93;4.73;;;;;;;4.46;83.76;98898.22;5094904;28;20710;-67
2021/04/16 07:05:43;;;;;;;5.40;4.90;;;;;;;4.41;84.23;98906.19;5094909;28;20343;-67
2021/04/16 07:08:20;;;;;;;5.47;4.40;;;;;;;4.35;84.98;98909.00;5093458;28;20214;-66
2021/04/16 07:10:46;;;;;;;5.80;4.63;;;;;;;4.33;82.61;98902.97;5095089;28;20581;-67
2021/04/16 07:13:23;;;;;;;6.30;4.93;;;;;;;4.07;82.59;98902.09;5094829;28;20234;-67
2021/04/16 07:15:49;;;;;;;5.57;4.97;;;;;;;4.10;84.60;98899.41;5094700;28;20209;-67
2021/04/16 07:18:22;;;;;;;5.70;4.60;;;;;;;4.23;85.79;98906.78;5094867;28;20238;-68
2021/04/16 07:20:48;;;;;;;5.23;4.73;;;;;;;4.40;85.13;98907.09;5094896;28;20225;-67
2021/04/16 07:23:16;;;;;;;5.03;4.53;;;;;;;4.48;83.09;98910.34;5094618;28;20668;-67
2021/04/16 07:25:46;;;;;;;6.10;4.27;;;;;;;4.64;81.42;98916.78;5094912;28;20214;-66
2021/04/16 07:28:33;;;;;;;4.63;4.23;;;;;;;4.87;80.99;98908.13;5094696;28;20224;-66
2021/04/16 07:31:25;;;;;;;4.93;4.43;;;;;;;5.14;80.19;98910.66;5094657;28;20262;-66
2021/04/16 07:33:52;;;;;;;5.30;4.80;;;;;;;5.48;80.23;98911.16;5094356;28;20298;-66
2021/04/16 07:36:27;;;;;;;4.80;4.40;;;;;;;5.54;78.44;98921.44;5093173;28;20211;-67
2021/04/16 07:39:15;;;;;;;5.73;4.83;;;;;;;5.30;78.26;98917.06;5094821;28;20270;-66
2021/04/16 07:41:44;;;;;;;4.67;4.27;;;;;;;5.46;78.80;98915.63;5094357;28;20692;-67
2021/04/16 07:44:18;;;;;;;5.83;4.43;;;;;;;5.52;75.65;98914.53;5092149;28;20276;-67
2021/04/16 07:46:49;;;;;;;5.30;4.80;;;;;;;5.64;79.17;98907.06;5072544;28;20247;-67
2021/04/16 07:49:19;;;;;;;4.63;4.23;;;;;;;5.78;80.10;98907.41;5073260;28;20210;-66
2021/04/16 07:51:47;;;;;;;4.63;4.10;;;;;;;5.96;78.30;98911.97;5073464;28;20219;-67
2021/04/16 07:54:17;;;;;;;4.83;4.43;;;;;;;6.04;78.80;98909.91;5076555;28;20233;-66
2021/04/16 07:56:44;;;;;;;4.93;4.43;;;;;;;6.08;77.58;98905.38;5091937;28;20221;-66
2021/04/16 07:59:13;;;;;;;5.03;4.53;;;;;;;6.17;77.76;98908.50;5093303;28;20568;-67
2021/04/16 08:01:43;;;;;;;6.23;4.73;;;;;;;6.33;78.89;98916.63;5090757;28;20574;-67
2021/04/16 08:04:11;;;;;;;4.43;3.97;;;;;;;6.39;78.93;98906.75;5093799;28;20379;-66
2021/04/16 08:06:40;;;;;;;4.73;4.33;;;;;;;6.42;75.58;98911.88;5094115;28;20220;-68
2021/04/16 08:09:27;;;;;;;4.90;4.40;;;;;;;6.39;76.20;98912.00;5093857;28;20207;-67
2021/04/16 08:12:12;;;;;;;6.23;4.47;;;;;;;6.38;75.84;98912.94;5093870;28;20202;-67
2021/04/16 08:14:42;;;;;;;4.73;4.23;;;;;;;6.43;77.46;98910.97;5093437;28;20246;-67
2021/04/16 08:17:18;;;;;;;5.13;4.53;;;;;;;6.45;76.00;98919.63;5093536;28;20228;-67
2021/04/16 08:19:44;;;;;;;4.77;4.03;;;;;;;6.33;75.17;98920.13;5093548;28;20689;-68
2021/04/16 08:22:15;;;;;;;5.10;4.43;;;;;;;6.38;77.58;98920.81;5093436;28;20689;-67
2021/04/16 08:24:49;;;;;;;4.67;4.17;;;;;;;6.35;75.53;98920.06;5093383;28;20738;-67
2021/04/16 08:27:28;;;;;;;5.20;4.70;;;;;;;6.57;77.42;98919.13;5094001;28;20300;-67
2021/04/16 08:29:58;;;;;;;5.10;4.60;;;;;;;6.91;76.14;98913.34;5091655;28;20215;-67
2021/04/16 08:32:32;;;;;;;4.73;4.30;;;;;;;6.94;75.22;98908.81;5093594;28;20211;-67
2021/04/16 08:35:04;;;;;;;5.40;4.90;;;;;;;6.96;75.44;98914.84;5093513;28;20212;-67
2021/04/16 08:37:37;;;;;;;5.70;4.80;;;;;;;7.14;73.73;98916.69;5093309;28;20578;-67
2021/04/16 08:40:07;;;;;;;5.27;4.77;;;;;;;7.33;72.71;98909.69;5093014;28;20221;-67
2021/04/16 08:42:35;;;;;;;5.10;4.70;;;;;;;7.58;75.85;98911.19;5093309;28;20211;-67
2021/04/16 08:45:08;;;;;;;5.33;4.83;;;;;;;7.98;72.87;98908.44;5093364;28;20262;-67
2021/04/16 08:47:42;;;;;;;5.30;4.80;;;;;;;8.25;74.00;98907.16;5093361;28;20618;-67
2021/04/16 08:50:10;;;;;;;7.03;4.27;;;;;;;8.34;71.17;98913.78;5093236;28;20217;-67
2021/04/16 08:52:44;;;;;;;5.77;4.53;;;;;;;8.20;68.48;98911.78;5093146;28;20285;-67
2021/04/16 08:55:14;;;;;;;4.40;4.00;;;;;;;8.09;68.17;98913.22;5091214;28;20674;-67
2021/04/16 08:57:52;;;;;;;4.63;4.17;;;;;;;7.99;66.33;98911.91;5092286;28;20281;-66
2021/04/16 09:00:23;;;;;;;5.30;4.80;;;;;;;7.85;69.06;98903.81;5092908;28;20301;-68
2021/04/16 09:02:52;;;;;;;5.20;4.70;;;;;;;7.58;71.08;98897.16;5092757;28;20209;-68
2021/04/16 09:05:21;;;;;;;5.10;4.50;;;;;;;7.40;70.78;98904.09;5092536;28;20205;-68
2021/04/16 09:07:55;;;;;;;6.97;4.63;;;;;;;7.24;70.59;98899.59;5092951;28;20577;-68
2021/04/16 09:10:52;;;;;;;6.20;5.43;;;;;;;6.96;69.98;98904.31;5092941;28;20219;-67
2021/04/16 09:13:49;;;;;;;7.17;5.23;;;;;;;6.85;69.93;98906.56;5092784;28;20240;-66
2021/04/16 09:16:34;;;;;;;5.80;4.73;;;;;;;6.93;72.48;98904.47;5050135;28;20674;-67
2021/04/16 09:19:30;;;;;;;6.27;5.67;;;;;;;6.96;72.15;98906.13;5088045;28;20254;-67
2021/04/16 09:22:31;;;;;;;5.40;4.90;;;;;;;6.75;71.71;98913.13;5088408;28;20211;-67
2021/04/16 09:25:00;;;;;;;5.27;4.77;;;;;;;6.75;69.93;98907.88;5087618;28;20206;-68
2021/04/16 09:27:37;;;;;;;5.53;4.90;;;;;;;6.93;70.32;98909.72;5092469;28;20747;-69
2021/04/16 09:30:35;;;;;;;5.50;5.00;;;;;;;7.14;72.25;98908.81;5092638;28;20207;-68
2021/04/16 09:33:19;;;;;;;5.53;5.03;;;;;;;7.32;70.39;98902.75;5092787;28;20209;-66
2021/04/16 09:35:53;;;;;;;5.17;4.73;;;;;;;7.57;68.52;98903.34;5092352;28;20203;-67
2021/04/16 09:38:26;;;;;;;5.93;5.33;;;;;;;8.04;68.07;98899.41;5092596;28;20283;-67
2021/04/16 09:41:08;;;;;;;5.77;4.90;;;;;;;8.32;66.54;98911.22;5092420;28;20222;-67
2021/04/16 09:43:35;;;;;;;5.20;4.70;;;;;;;8.29;64.23;98905.25;5092690;28;20216;-67
2021/04/16 09:46:01;;;;;;;5.13;4.63;;;;;;;8.00;63.51;98905.72;5092614;28;20202;-67
2021/04/16 09:48:47;;;;;;;5.27;4.67;;;;;;;7.61;65.31;98910.19;5090630;28;20213;-67
2021/04/16 09:51:33;;;;;;;5.10;4.60;;;;;;;6.86;66.92;98910.91;5092393;28;20212;-67
2021/04/16 09:54:26;;;;;;;5.03;4.63;;;;;;;6.56;67.66;98896.44;5092646;28;20213;-67
2021/04/16 09:57:24;;;;;;;5.40;4.63;;;;;;;6.27;70.57;98909.88;5092109;28;20272;-67
2021/04/16 09:59:50;;;;;;;6.87;4.90;;;;;;;6.15;70.94;98906.84;5075237;28;20609;-67
2021/04/16 10:02:35;;;;;;;5.13;4.63;;;;;;;5.96;71.38;98901.50;5092211;28;20664;-67
2021/04/16 10:05:12;;;;;;;7.43;4.90;;;;;;;5.87;72.24;98903.63;5092442;28;20210;-67
2021/04/16 10:07:45;;;;;;;5.57;4.77;;;;;;;5.92;72.17;98905.13;5093548;28;20236;-67
2021/04/16 10:10:20;;;;;;;5.40;4.90;;;;;;;6.15;71.60;98898.97;5096263;28;20661;-67
2021/04/16 10:12:46;;;;;;;6.50;4.93;;;;;;;6.47;70.17;98894.16;5096427;28;20210;-67
2021/04/16 10:15:18;;;;;;;5.37;4.53;;;;;;;6.56;69.52;98893.78;5094982;28;20625;-66
2021/04/16 10:17:56;;;;;;;5.30;4.80;;;;;;;6.89;68.99;98897.63;5096334;28;20230;-67
2021/04/16 10:20:24;;;;;;;5.40;4.70;;;;;;;7.07;67.47;98891.59;5095841;28;20218;-68
2021/04/16 10:23:03;;;;;;;4.60;4.20;;;;;;;7.34;66.63;98891.22;5095793;28;20211;-68
2021/04/16 12:38:31;;;;;;;3.83;3.20;;;;;;;8.69;58.73;98857.59;5039635;28;20322;-68
2021/04/16 12:40:57;;;;;;;3.53;3.07;;;;;;;8.61;58.30;98859.72;5093437;28;20214;-68
2021/04/16 12:43:24;;;;;;;3.00;2.80;;;;;;;8.53;57.73;98857.50;5093444;28;20214;-68
2021/04/16 12:45:53;;;;;;;3.53;3.20;;;;;;;8.57;55.60;98852.94;5093140;28;20668;-67
2021/04/16 12:48:19;;;;;;;4.47;3.47;;;;;;;8.41;56.63;98847.56;5093294;28;20599;-67
2021/04/16 12:50:45;;;;;;;3.10;2.80;;;;;;;8.24;57.02;98849.31;5092944;28;20210;-67
2021/04/16 12:53:11;;;;;;;3.33;2.93;;;;;;;7.95;56.71;98852.47;5092829;28;20300;-68
2021/04/16 12:55:37;;;;;;;3.17;2.83;;;;;;;7.80;57.31;98842.63;5091559;28;20694;-68
2021/04/16 12:58:07;;;;;;;3.33;3.03;;;;;;;7.59;58.81;98843.66;5092696;28;20239;-68
2021/04/16 13:00:37;;;;;;;3.33;3.03;;;;;;;7.59;58.78;98841.84;5092697;28;20673;-68
2021/04/16 13:03:06;;;;;;;3.40;3.10;;;;;;;7.62;61.50;98848.75;5092725;28;20207;-68
2021/04/16 13:05:34;;;;;;;3.43;3.13;;;;;;;7.63;60.47;98846.06;5093082;28;20256;-68
2021/04/16 13:08:00;;;;;;;3.43;3.10;;;;;;;7.78;60.13;98847.13;5093017;28;20214;-68
2021/04/16 13:10:26;;;;;;;3.27;2.97;;;;;;;7.98;60.67;98852.31;5092620;28;20247;-67
2021/04/16 13:12:52;;;;;;;4.43;3.73;;;;;;;8.08;60.11;98848.31;5092601;28;20233;-67
2021/04/16 13:15:20;;;;;;;3.83;2.93;;;;;;;8.18;59.57;98836.41;5092891;28;20252;-68
2021/04/16 13:17:49;;;;;;;4.47;3.40;;;;;;;8.37;58.30;98835.47;5092383;28;20239;-68
2021/04/16 13:20:16;;;;;;;2.97;2.67;;;;;;;8.52;56.13;98836.50;5092661;28;20214;-68
2021/04/16 13:22:43;;;;;;;2.80;2.60;;;;;;;8.56;57.61;98835.41;5090941;28;20208;-68
2021/04/16 13:25:14;;;;;;;3.10;2.63;;;;;;;8.70;56.94;98832.94;5092656;28;20217;-68
2021/04/16 13:27:40;;;;;;;2.80;2.50;;;;;;;8.86;57.04;98825.94;5092641;28;20222;-68
2021/04/16 13:30:09;;;;;;;2.40;2.20;;;;;;;8.91;55.59;98837.09;5092704;28;20216;-68
2021/04/16 13:32:40;;;;;;;2.30;2.10;;;;;;;9.12;55.56;98830.72;5093052;28;20295;-68
2021/04/16 13:35:11;;;;;;;2.90;2.23;;;;;;;9.14;51.90;98824.44;5092724;28;20223;-68
2021/04/16 13:37:37;;;;;;;2.80;2.50;;;;;;;9.22;54.93;98818.75;5092164;28;20236;-68
2021/04/16 13:40:03;;;;;;;2.13;1.93;;;;;;;9.29;53.50;98820.13;5092298;28;20239;-68
2021/04/16 13:42:29;;;;;;;4.40;2.37;;;;;;;9.33;55.79;98819.03;5093385;28;20221;-68
2021/04/16 13:44:56;;;;;;;3.10;2.10;;;;;;;9.32;54.46;98818.19;5096382;28;20204;-68
2021/04/16 13:47:25;;;;;;;2.40;2.20;;;;;;;9.28;53.40;98815.78;5096874;28;20288;-68
2021/04/16 13:49:51;;;;;;;2.80;1.80;;;;;;;9.22;52.66;98806.41;5095103;28;20216;-68
2021/04/16 13:52:18;;;;;;;2.20;2.00;;;;;;;9.23;54.37;98802.00;5096500;28;20586;-68
2021/04/16 13:54:47;;;;;;;2.50;2.30;;;;;;;9.37;53.91;98804.75;5096628;28;20283;-68
2021/04/16 13:57:15;;;;;;;2.53;2.10;;;;;;;9.34;50.78;98800.50;5096385;28;20725;-68
2021/04/16 13:59:41;;;;;;;3.30;2.27;;;;;;;9.17;50.44;98797.06;5096694;28;20263;-68
2021/04/16 14:02:08;;;;;;;3.17;2.20;;;;;;;8.81;50.90;98791.91;5096340;28;20676;-68